createdAt,value
2019-02-22T00:01:11.815Z,103048.48
2019-02-22T00:03:43.441Z,103048.70
2019-02-22T00:06:13.917Z,103050.91
2019-02-22T00:08:45.715Z,103044.63
2019-02-22T00:11:22.704Z,103046.20
2019-02-22T00:14:00.415Z,103057.91
2019-02-22T00:16:32.441Z,103051.13
2019-02-22T00:19:03.954Z,103041.83
2019-02-22T00:21:33.964Z,103040.98
2019-02-22T00:24:10.242Z,103055.41
2019-02-22T00:26:54.182Z,103057.07
2019-02-22T00:29:26.680Z,103057.91
2019-02-22T00:32:02.771Z,103064.70
2019-02-22T00:34:38.405Z,103074.73
2019-02-22T00:37:14.921Z,103069.81
2019-02-22T00:39:47.420Z,103066.80
2019-02-22T00:42:19.448Z,103078.69
2019-02-22T00:44:55.532Z,103088.73
2019-02-22T00:47:32.065Z,103082.34
2019-02-22T00:50:01.898Z,103084.25
2019-02-22T00:52:35.416Z,103079.00
2019-02-22T00:55:06.761Z,103082.27
2019-02-22T00:57:38.118Z,103080.91
2019-02-22T01:02:43.041Z,103082.99
2019-02-22T01:05:14.863Z,103075.87
2019-02-22T01:07:48.943Z,103074.21
2019-02-22T01:10:30.449Z,103065.22
2019-02-22T01:12:51.926Z,103062.72
2019-02-22T01:15:28.938Z,103055.42
2019-02-22T01:17:59.563Z,103057.62
2019-02-22T01:20:30.820Z,103046.54
2019-02-22T01:23:03.586Z,103044.64
2019-02-22T01:25:35.478Z,103042.77
2019-02-22T01:28:07.881Z,103033.59
2019-02-22T01:30:45.389Z,103033.05
2019-02-22T01:33:15.545Z,103058.55
2019-02-22T01:35:44.988Z,103055.31
2019-02-22T01:38:16.425Z,103062.92
2019-02-22T01:40:46.994Z,103065.34
2019-02-22T01:43:19.235Z,103067.20
2019-02-22T01:45:49.162Z,103070.44
2019-02-22T01:48:19.171Z,103067.94
2019-02-22T01:50:51.470Z,103062.72
2019-02-22T01:53:20.724Z,103060.00
2019-02-22T01:55:52.097Z,103068.88
2019-02-22T01:58:22.512Z,103076.52
2019-02-22T02:00:55.550Z,103073.28
2019-02-22T02:03:31.285Z,103074.94
2019-02-22T02:06:01.485Z,103067.85
2019-02-22T02:08:33.272Z,103064.30
2019-02-22T02:11:02.621Z,103058.02
2019-02-22T02:13:31.729Z,103063.15
2019-02-22T02:16:09.392Z,103057.39
2019-02-22T02:18:38.884Z,103048.21
2019-02-22T02:21:10.678Z,103060.44
2019-02-22T02:23:45.214Z,103061.25
2019-02-22T02:26:19.919Z,103064.59
2019-02-22T02:31:29.121Z,103058.84
2019-02-22T02:34:01.391Z,103056.76
2019-02-22T02:36:33.775Z,103053.53
2019-02-22T02:39:07.994Z,103046.52
2019-02-22T02:41:41.728Z,103052.88
2019-02-22T02:44:12.984Z,103051.52
2019-02-22T02:46:47.072Z,103045.79
2019-02-22T02:49:19.342Z,103029.50
2019-02-22T02:51:51.035Z,103024.06
2019-02-22T02:54:23.058Z,103014.55
2019-02-22T02:56:52.820Z,103022.41
2019-02-22T02:59:24.504Z,103012.90
2019-02-22T03:01:56.189Z,103010.19
2019-02-22T03:04:27.431Z,103009.42
2019-02-22T03:07:05.513Z,103007.66
2019-02-22T03:09:36.071Z,103024.15
2019-02-22T03:12:07.724Z,103020.70
2019-02-22T03:14:40.935Z,103016.41
2019-02-22T03:17:12.363Z,103015.67
2019-02-22T03:19:55.933Z,103009.11
2019-02-22T03:22:29.520Z,103002.61
2019-02-22T03:25:00.329Z,103003.97
2019-02-22T03:27:32.020Z,103003.97
2019-02-22T03:30:04.281Z,103009.11
2019-02-22T03:32:34.775Z,103009.18
2019-02-22T03:35:04.969Z,103009.40
2019-02-22T03:37:35.309Z,103003.67
2019-02-22T03:40:06.613Z,103006.90
2019-02-22T03:42:36.834Z,103010.46
2019-02-22T03:45:06.952Z,103004.48
2019-02-22T03:47:38.402Z,103007.75
2019-02-22T03:50:08.843Z,103006.05
2019-02-22T03:52:49.620Z,103011.82
2019-02-22T03:55:20.260Z,103019.13
2019-02-22T03:57:53.793Z,103017.47
2019-02-22T04:00:28.987Z,103015.78
2019-02-22T04:02:59.391Z,103009.21
2019-02-22T04:05:33.029Z,102999.37
2019-02-22T04:08:04.048Z,102996.66
2019-02-22T04:10:48.475Z,103000.73
2019-02-22T04:13:18.707Z,103008.37
2019-02-22T04:15:49.160Z,103003.45
2019-02-22T04:18:19.003Z,103015.16
2019-02-22T04:20:49.783Z,103009.21
2019-02-22T04:23:22.817Z,103013.58
2019-02-22T04:25:56.308Z,103014.94
2019-02-22T04:28:26.613Z,103018.20
2019-02-22T04:30:59.702Z,103020.30
2019-02-22T04:33:30.157Z,103021.65
2019-02-22T04:36:07.406Z,103025.39
2019-02-22T04:38:41.607Z,103030.20
2019-02-22T04:41:15.443Z,103033.14
2019-02-22T04:43:46.859Z,103043.92
2019-02-22T04:46:20.067Z,103051.66
2019-02-22T04:48:53.473Z,103056.13
2019-02-22T04:51:23.444Z,103056.56
2019-02-22T04:53:59.693Z,103066.16
2019-02-22T04:56:36.509Z,103077.45
2019-02-22T04:59:10.190Z,103073.18
2019-02-22T05:01:41.005Z,103085.06
2019-02-22T05:04:11.266Z,103078.59
2019-02-22T05:06:43.484Z,103081.09
2019-02-22T05:09:14.698Z,103084.45
2019-02-22T05:11:45.914Z,103086.20
2019-02-22T05:14:17.450Z,103082.77
2019-02-22T05:16:50.890Z,103088.29
2019-02-22T05:19:20.914Z,103094.14
2019-02-22T05:21:57.162Z,103095.80
2019-02-22T05:24:30.053Z,103099.36
2019-02-22T05:27:00.446Z,103100.08
2019-02-22T05:29:32.956Z,103099.44
2019-02-22T05:32:03.490Z,103098.52
2019-02-22T05:34:34.362Z,103105.59
2019-02-22T05:37:04.671Z,103110.21
2019-02-22T05:39:38.552Z,103099.53
2019-02-22T05:42:22.267Z,103107.88
2019-02-22T05:44:42.685Z,103102.97
2019-02-22T05:47:21.207Z,103111.11
2019-02-22T05:49:51.539Z,103109.15
2019-02-22T05:52:22.455Z,103101.61
2019-02-22T05:54:57.291Z,103104.87
2019-02-22T05:57:29.461Z,103100.26
2019-02-22T05:59:59.759Z,103104.96
2019-02-22T06:02:30.350Z,103094.65
2019-02-22T06:05:00.017Z,103089.52
2019-02-22T06:07:34.051Z,103091.73
2019-02-22T06:10:04.061Z,103078.16
2019-02-22T06:12:38.210Z,103067.30
2019-02-22T06:15:10.121Z,103066.97
2019-02-22T06:17:48.735Z,103070.53
2019-02-22T06:22:51.735Z,103101.22
2019-02-22T06:25:23.874Z,103108.31
2019-02-22T06:27:57.691Z,103112.72
2019-02-22T06:30:27.785Z,103107.28
2019-02-22T06:32:58.132Z,103114.37
2019-02-22T06:35:34.354Z,103106.23
2019-02-22T06:38:03.999Z,103123.15
2019-02-22T06:40:35.576Z,103124.80
2019-02-22T06:43:06.260Z,103138.70
2019-02-22T06:45:44.469Z,103137.35
2019-02-22T06:48:14.321Z,103148.21
2019-02-22T06:50:45.775Z,103149.36
2019-02-22T06:53:27.187Z,103157.63
2019-02-22T06:55:58.200Z,103158.98
2019-02-22T06:58:28.173Z,103166.70
2019-02-22T07:00:58.724Z,103167.34
2019-02-22T07:03:28.861Z,103169.13
2019-02-22T07:08:37.533Z,103160.47
2019-02-22T07:11:15.248Z,103168.73
2019-02-22T07:13:44.547Z,103178.66
2019-02-22T07:16:23.575Z,103181.25
2019-02-22T07:18:54.906Z,103180.31
2019-02-22T07:21:26.457Z,103183.16
2019-02-22T07:23:57.253Z,103184.63
2019-02-22T07:26:30.442Z,103181.38
2019-02-22T07:29:01.737Z,103178.47
2019-02-22T07:31:32.115Z,103191.30
2019-02-22T07:34:03.058Z,103196.22
2019-02-22T07:36:34.776Z,103198.09
2019-02-22T07:39:11.873Z,103192.78
2019-02-22T07:41:44.780Z,103192.98
2019-02-22T07:44:16.915Z,103199.05
2019-02-22T07:46:51.079Z,103195.61
2019-02-22T07:49:26.541Z,103201.13
2019-02-22T07:52:02.773Z,103208.56
2019-02-22T07:54:37.282Z,103214.92
2019-02-22T07:57:07.716Z,103212.84
2019-02-22T07:59:40.389Z,103216.52
2019-02-22T08:02:11.034Z,103211.51
2019-02-22T08:04:40.974Z,103215.16
2019-02-22T08:07:12.329Z,103205.86
2019-02-22T08:09:46.074Z,103207.13
2019-02-22T08:12:18.118Z,103211.73
2019-02-22T08:14:49.287Z,103225.52
2019-02-22T08:17:28.520Z,103225.09
2019-02-22T08:20:07.050Z,103223.64
2019-02-22T08:22:46.492Z,103230.34
2019-02-22T08:25:17.708Z,103231.70
2019-02-22T08:27:53.856Z,103242.98
2019-02-22T08:30:18.391Z,103249.87
2019-02-22T08:32:50.074Z,103243.19
2019-02-22T08:35:27.095Z,103240.91
2019-02-22T08:40:44.655Z,103245.82
2019-02-22T08:43:18.825Z,103251.16
2019-02-22T08:45:52.473Z,103246.35
2019-02-22T08:48:38.393Z,103248.64
2019-02-22T08:51:11.486Z,103252.62
2019-02-22T08:53:53.768Z,103262.22
2019-02-22T08:57:06.572Z,103270.28
2019-02-22T09:03:00.547Z,103276.55
2019-02-22T09:08:33.291Z,103270.37
2019-02-22T09:11:12.091Z,103280.09
2019-02-22T09:18:27.930Z,103274.63
2019-02-22T09:21:01.138Z,103269.92
2019-02-22T09:23:34.723Z,103283.09
2019-02-22T09:26:13.212Z,103283.39
2019-02-22T09:28:59.110Z,103281.11
2019-02-22T09:31:42.948Z,103278.60
2019-02-22T09:34:20.621Z,103276.83
2019-02-22T09:36:58.209Z,103273.92
2019-02-22T09:39:37.738Z,103277.27
2019-02-22T09:45:03.057Z,103280.30
2019-02-22T09:47:37.432Z,103278.86
2019-02-22T09:52:58.290Z,103283.34
2019-02-22T09:55:42.353Z,103290.55
2019-02-22T09:58:20.094Z,103283.36
2019-02-22T10:00:49.815Z,103288.99
2019-02-22T10:03:19.393Z,103275.28
2019-02-22T10:05:53.838Z,103288.56
2019-02-22T10:08:27.718Z,103285.30
2019-02-22T10:11:00.807Z,103286.66
2019-02-22T10:13:44.959Z,103286.44
2019-02-22T10:16:17.292Z,103288.20
2019-02-22T10:18:48.046Z,103298.06
2019-02-22T10:21:19.206Z,103290.52
2019-02-22T10:26:32.105Z,103282.55
2019-02-22T10:29:11.881Z,103275.01
2019-02-22T10:31:47.062Z,103285.05
2019-02-22T10:34:18.420Z,103285.38
2019-02-22T10:36:49.918Z,103282.95
2019-02-22T10:39:28.588Z,103289.66
2019-02-22T10:42:15.758Z,103293.81
2019-02-22T10:44:46.896Z,103290.98
2019-02-22T10:47:28.849Z,103295.17
2019-02-22T10:50:04.486Z,103285.13
2019-02-22T10:52:42.649Z,103298.30
2019-02-22T10:55:16.584Z,103283.95
2019-02-22T10:57:57.917Z,103275.78
2019-02-22T11:00:29.349Z,103271.26
2019-02-22T11:03:00.881Z,103258.27
2019-02-22T11:05:34.830Z,103257.30
2019-02-22T11:08:15.862Z,103253.11
2019-02-22T11:10:48.307Z,103268.05
2019-02-22T11:13:21.409Z,103269.91
2019-02-22T11:18:53.712Z,103275.27
2019-02-22T11:21:24.348Z,103273.78
2019-02-22T11:23:58.042Z,103281.33
2019-02-22T11:26:32.480Z,103275.95
2019-02-22T11:29:09.654Z,103277.64
2019-02-22T11:31:40.844Z,103276.34
2019-02-22T11:34:22.968Z,103275.08
2019-02-22T11:37:08.253Z,103262.59
2019-02-22T11:39:39.981Z,103256.50
2019-02-22T11:42:09.190Z,103248.30
2019-02-22T11:44:47.326Z,103241.58
2019-02-22T11:47:22.505Z,103247.72
2019-02-22T11:49:56.652Z,103241.81
2019-02-22T11:52:29.435Z,103239.05
2019-02-22T11:55:00.773Z,103244.77
2019-02-22T11:57:32.352Z,103226.52
2019-02-22T12:00:07.470Z,103221.84
2019-02-22T12:02:41.473Z,103233.33
2019-02-22T12:05:14.584Z,103222.05
2019-02-22T12:07:52.030Z,103225.16
2019-02-22T12:10:29.383Z,103216.74
2019-02-22T12:13:00.831Z,103221.45
2019-02-22T12:15:31.588Z,103211.90
2019-02-22T12:18:07.459Z,103209.55
2019-02-22T12:20:43.408Z,103208.56
2019-02-22T12:23:17.872Z,103205.09
2019-02-22T12:25:49.517Z,103201.66
2019-02-22T12:31:31.851Z,103208.81
2019-02-22T12:34:02.788Z,103206.98
2019-02-22T12:36:32.536Z,103209.57
2019-02-22T12:39:05.625Z,103215.64
2019-02-22T12:41:42.114Z,103221.25
2019-02-22T12:44:14.090Z,103221.06
2019-02-22T12:46:47.036Z,103226.77
2019-02-22T12:49:16.554Z,103220.39
2019-02-22T12:51:48.623Z,103222.89
2019-02-22T12:54:21.864Z,103205.52
2019-02-22T12:57:00.211Z,103211.72
2019-02-22T12:59:32.621Z,103212.73
2019-02-22T13:02:12.653Z,103214.56
2019-02-22T13:04:48.054Z,103209.31
2019-02-22T13:12:46.125Z,103216.46
2019-02-22T13:15:16.406Z,103215.75
2019-02-22T13:20:42.430Z,103210.56
2019-02-22T13:23:12.354Z,103208.64
2019-02-22T13:25:43.687Z,103205.39
2019-02-22T13:28:17.610Z,103200.31
2019-02-22T13:30:50.603Z,103202.92
2019-02-22T13:33:22.751Z,103199.83
2019-02-22T13:35:56.022Z,103205.53
2019-02-22T13:38:31.225Z,103203.48
2019-02-22T13:41:06.878Z,103215.73
2019-02-22T13:43:41.944Z,103210.47
2019-02-22T13:46:12.328Z,103207.73
2019-02-22T13:48:43.262Z,103200.38
2019-02-22T13:51:16.863Z,103199.01
2019-02-22T13:53:49.788Z,103188.31
2019-02-22T13:56:29.280Z,103182.53
2019-02-22T13:58:53.343Z,103182.53
2019-02-22T14:01:30.810Z,103178.91
2019-02-22T14:04:05.463Z,103175.28
2019-02-22T14:06:36.834Z,103167.56
2019-02-22T14:09:08.794Z,103173.79
2019-02-22T14:11:42.263Z,103173.94
2019-02-22T14:14:18.492Z,103172.73
2019-02-22T14:16:54.323Z,103174.86
2019-02-22T14:19:29.609Z,103174.48
2019-02-22T14:22:00.261Z,103173.65
2019-02-22T14:27:20.128Z,103179.42
2019-02-22T14:29:55.767Z,103182.45
2019-02-22T14:32:26.204Z,103186.41
2019-02-22T14:35:01.246Z,103193.98
2019-02-22T14:37:37.423Z,103195.83
2019-02-22T14:40:16.991Z,103199.16
2019-02-22T14:42:48.299Z,103203.88
2019-02-22T14:45:19.434Z,103201.42
2019-02-22T14:47:52.479Z,103207.13
2019-02-22T14:50:23.386Z,103205.99
2019-02-22T14:53:16.635Z,103198.18
2019-02-22T14:55:38.941Z,103198.84
2019-02-22T14:58:13.931Z,103188.34
2019-02-22T15:00:44.464Z,103192.58
2019-02-22T15:03:17.687Z,103187.17
2019-02-22T15:05:48.103Z,103183.26
2019-02-22T15:08:17.231Z,103174.14
2019-02-22T15:10:50.900Z,103175.22
2019-02-22T15:13:19.950Z,103166.41
2019-02-22T15:16:03.802Z,103160.34
2019-02-22T15:18:42.275Z,103148.30
2019-02-22T15:21:11.990Z,103147.78
2019-02-22T15:23:41.474Z,103140.63
2019-02-22T15:26:13.601Z,103140.34
2019-02-22T15:28:43.223Z,103135.27
2019-02-22T15:31:14.504Z,103140.11
2019-02-22T15:33:47.376Z,103149.38
2019-02-22T15:36:19.450Z,103139.73
2019-02-22T15:38:50.461Z,103139.27
2019-02-22T15:41:21.729Z,103142.54
2019-02-22T15:43:59.267Z,103145.31
2019-02-22T15:46:37.080Z,103133.96
2019-02-22T15:49:10.934Z,103137.96
2019-02-22T15:51:44.115Z,103139.46
2019-02-22T15:54:18.926Z,103139.92
2019-02-22T15:56:54.389Z,103134.08
2019-02-22T15:59:27.323Z,103144.05
2019-02-22T16:02:05.581Z,103135.20
2019-02-22T16:04:59.818Z,103143.83
2019-02-22T16:07:44.322Z,103143.73
2019-02-22T16:10:05.309Z,103152.44
2019-02-22T16:12:40.593Z,103149.03
2019-02-22T16:15:23.060Z,103154.94
2019-02-22T16:17:53.892Z,103155.97
2019-02-22T16:20:24.449Z,103154.29
2019-02-22T16:22:55.518Z,103171.39
2019-02-22T16:25:24.639Z,103167.72
2019-02-22T16:27:56.552Z,103168.92
2019-02-22T16:30:28.920Z,103166.26
2019-02-22T16:32:58.778Z,103165.37
2019-02-22T16:38:09.208Z,103179.97
2019-02-22T16:40:39.065Z,103177.19
2019-02-22T16:45:52.494Z,103178.32
2019-02-22T16:48:24.827Z,103171.12
2019-02-22T16:51:02.402Z,103173.73
2019-02-22T16:53:31.898Z,103170.28
2019-02-22T16:56:07.938Z,103174.19
2019-02-22T16:58:40.060Z,103173.16
2019-02-22T17:03:49.226Z,103178.42
2019-02-22T17:06:23.491Z,103184.53
2019-02-22T17:08:54.058Z,103186.73
2019-02-22T17:11:25.933Z,103184.56
2019-02-22T17:13:56.242Z,103185.52
2019-02-22T17:16:25.602Z,103184.59
2019-02-22T17:18:56.920Z,103181.66
2019-02-22T17:21:26.151Z,103182.53
2019-02-22T17:23:57.050Z,103200.41
2019-02-22T17:26:28.661Z,103182.98
2019-02-22T17:29:00.633Z,103174.00
2019-02-22T17:31:35.854Z,103175.95
2019-02-22T17:34:07.305Z,103183.58
2019-02-22T17:36:42.062Z,103173.02
2019-02-22T17:39:12.312Z,103173.97
2019-02-22T17:41:42.968Z,103171.89
2019-02-22T17:44:12.455Z,103175.05
2019-02-22T17:46:44.710Z,103168.34
2019-02-22T17:49:17.066Z,103166.88
2019-02-22T17:51:47.346Z,103171.89
2019-02-22T17:54:19.436Z,103168.97
2019-02-22T17:56:51.339Z,103169.61
2019-02-22T17:59:23.766Z,103162.70
2019-02-22T18:01:54.744Z,103170.22
2019-02-22T18:04:26.357Z,103163.22
2019-02-22T18:06:58.146Z,103166.97
2019-02-22T18:09:29.037Z,103175.55
2019-02-22T18:11:59.905Z,103185.77
2019-02-22T18:14:30.622Z,103188.91
2019-02-22T18:17:07.951Z,103188.28
2019-02-22T18:19:42.370Z,103191.42
2019-02-22T18:22:25.225Z,103191.81
2019-02-22T18:24:49.592Z,103188.16
2019-02-22T18:29:58.433Z,103190.76
2019-02-22T18:32:29.399Z,103193.68
2019-02-22T18:35:07.027Z,103200.17
2019-02-22T18:37:40.603Z,103200.38
2019-02-22T18:40:15.602Z,103200.77
2019-02-22T18:42:48.099Z,103206.74
2019-02-22T18:45:18.232Z,103203.69
2019-02-22T18:48:03.597Z,103203.60
2019-02-22T18:50:34.038Z,103208.70
2019-02-22T18:53:05.087Z,103200.77
2019-02-22T18:55:49.556Z,103197.75
2019-02-22T18:58:18.234Z,103200.34
2019-02-22T19:00:49.883Z,103198.47
2019-02-22T19:03:20.973Z,103201.69
2019-02-22T19:05:53.443Z,103200.00
2019-02-22T19:08:32.447Z,103201.91
2019-02-22T19:11:01.858Z,103202.92
2019-02-22T19:13:33.251Z,103205.01
2019-02-22T19:16:04.520Z,103204.91
2019-02-22T19:18:41.719Z,103202.08
2019-02-22T19:21:18.513Z,103200.08
2019-02-22T19:23:52.209Z,103208.77
2019-02-22T19:26:29.707Z,103207.92
2019-02-22T19:29:00.901Z,103205.92
2019-02-22T19:31:32.615Z,103208.00
2019-02-22T19:34:01.944Z,103194.44
2019-02-22T19:39:14.226Z,103200.28
2019-02-22T19:41:46.053Z,103190.45
2019-02-22T19:44:20.465Z,103192.02
2019-02-22T19:49:31.049Z,103189.00
2019-02-22T19:52:09.917Z,103194.62
2019-02-22T19:54:40.099Z,103187.52
2019-02-22T19:57:11.453Z,103187.20
2019-02-22T19:59:44.709Z,103179.78
2019-02-22T20:02:20.461Z,103175.72
2019-02-22T20:04:59.722Z,103175.08
2019-02-22T20:07:30.161Z,103178.00
2019-02-22T20:10:01.304Z,103183.94
2019-02-22T20:12:34.781Z,103182.28
2019-02-22T20:15:05.669Z,103178.93
2019-02-22T20:17:40.286Z,103181.64
2019-02-22T20:20:12.334Z,103181.95
2019-02-22T20:22:46.230Z,103183.00
2019-02-22T20:25:17.832Z,103179.23
2019-02-22T20:27:55.825Z,103184.66
2019-02-22T20:30:26.967Z,103180.59
2019-02-22T20:33:01.013Z,103179.23
2019-02-22T20:35:37.085Z,103167.36
2019-02-22T20:38:09.879Z,103168.80
2019-02-22T20:40:43.783Z,103167.97
2019-02-22T20:43:14.105Z,103161.72
2019-02-22T20:45:50.116Z,103165.59
2019-02-22T20:48:25.909Z,103156.39
2019-02-22T20:50:55.050Z,103161.81
2019-02-22T20:53:26.666Z,103151.68
2019-02-22T20:55:59.332Z,103153.25
2019-02-22T20:58:29.554Z,103145.02
2019-02-22T21:01:00.678Z,103146.45
2019-02-22T21:03:32.044Z,103142.59
2019-02-22T21:06:04.973Z,103138.52
2019-02-22T21:08:35.025Z,103134.97
2019-02-22T21:11:11.904Z,103136.83
2019-02-22T21:13:42.415Z,103140.91
2019-02-22T21:16:14.931Z,103143.83
2019-02-22T21:18:47.834Z,103142.26
2019-02-22T21:21:18.147Z,103146.15
2019-02-22T21:23:52.658Z,103143.23
2019-02-22T21:26:24.426Z,103148.45
2019-02-22T21:28:55.532Z,103144.17
2019-02-22T21:31:28.367Z,103145.31
2019-02-22T21:33:59.954Z,103139.68
2019-02-22T21:36:31.137Z,103132.90
2019-02-22T21:39:03.007Z,103132.09
2019-02-22T21:41:33.458Z,103132.47
2019-02-22T21:44:04.140Z,103136.75
2019-02-22T21:46:34.790Z,103139.88
2019-02-22T21:49:07.552Z,103136.32
2019-02-22T21:54:26.083Z,103134.66
2019-02-22T21:56:57.011Z,103130.98
2019-02-22T21:59:32.862Z,103139.33
2019-02-22T22:02:10.174Z,103134.31
2019-02-22T22:04:46.208Z,103143.47
2019-02-22T22:07:19.242Z,103138.05
2019-02-22T22:09:52.018Z,103134.83
2019-02-22T22:12:21.547Z,103135.97
2019-02-22T22:14:52.908Z,103136.82
2019-02-22T22:17:23.154Z,103139.02
2019-02-22T22:19:53.011Z,103143.91
2019-02-22T22:22:27.840Z,103141.02
2019-02-22T22:24:58.059Z,103136.95
2019-02-22T22:27:29.791Z,103141.53
2019-02-22T22:30:07.836Z,103147.67
2019-02-22T22:32:37.400Z,103140.05
2019-02-22T22:35:08.793Z,103141.94
2019-02-22T22:37:39.385Z,103143.69
2019-02-22T22:40:10.345Z,103142.33
2019-02-22T22:42:40.459Z,103137.95
2019-02-22T22:45:10.785Z,103137.83
2019-02-22T22:47:42.366Z,103131.25
2019-02-22T22:50:13.358Z,103120.28
2019-02-22T22:52:44.844Z,103131.67
2019-02-22T22:55:15.219Z,103125.91
2019-02-22T22:57:48.438Z,103117.98
2019-02-22T23:00:35.619Z,103114.13
2019-02-22T23:03:04.825Z,103119.75
2019-02-22T23:05:38.356Z,103110.13
2019-02-22T23:08:10.146Z,103109.83
2019-02-22T23:10:45.539Z,103120.04
2019-02-22T23:13:15.549Z,103104.80
2019-02-22T23:15:44.668Z,103108.86
2019-02-22T23:18:15.731Z,103105.84
2019-02-22T23:20:46.955Z,103106.89
2019-02-22T23:23:17.810Z,103096.77
2019-02-22T23:25:48.428Z,103103.55
2019-02-22T23:28:21.738Z,103106.44
2019-02-22T23:30:50.741Z,103107.19
2019-02-22T23:33:21.666Z,103096.84
2019-02-22T23:35:54.217Z,103094.44
2019-02-22T23:38:30.654Z,103094.77
2019-02-22T23:41:03.742Z,103093.09
2019-02-22T23:43:36.033Z,103095.80
2019-02-22T23:46:05.789Z,103105.62
2019-02-22T23:48:35.977Z,103096.94
2019-02-22T23:51:05.313Z,103093.72
2019-02-22T23:53:35.833Z,103100.84
2019-02-22T23:56:06.370Z,103106.26
2019-02-22T23:58:36.642Z,103095.72
